sensor_id;sensor_type;location;lat;lon;timestamp;temperature;humidity
24410;DHT22;12543;53.364;-1.504;2023-07-31T00:02:17;16.20;99.90
24410;DHT22;12543;53.364;-1.504;2023-07-31T00:04:44;16.20;99.90
24410;DHT22;12543;53.364;-1.504;2023-07-31T00:07:12;16.20;99.90
24410;DHT22;12543;53.364;-1.504;2023-07-31T00:09:39;16.20;99.90
24410;DHT22;12543;53.364;-1.504;2023-07-31T00:12:07;16.20;99.90
24410;DHT22;12543;53.364;-1.504;2023-07-31T00:14:34;16.20;99.90
24410;DHT22;12543;53.364;-1.504;2023-07-31T00:17:01;16.20;99.90
24410;DHT22;12543;53.364;-1.504;2023-07-31T00:19:29;16.20;99.90
24410;DHT22;12543;53.364;-1.504;2023-07-31T00:21:56;16.20;99.90
24410;DHT22;12543;53.364;-1.504;2023-07-31T00:24:23;16.30;99.90
24410;DHT22;12543;53.364;-1.504;2023-07-31T00:26:50;16.30;99.90
24410;DHT22;12543;53.364;-1.504;2023-07-31T00:29:18;16.30;99.90
24410;DHT22;12543;53.364;-1.504;2023-07-31T00:31:46;16.30;99.90
24410;DHT22;12543;53.364;-1.504;2023-07-31T00:34:14;16.30;99.90
24410;DHT22;12543;53.364;-1.504;2023-07-31T00:36:41;16.30;99.90
24410;DHT22;12543;53.364;-1.504;2023-07-31T00:39:08;16.30;99.90
24410;DHT22;12543;53.364;-1.504;2023-07-31T00:41:35;16.40;99.90
24410;DHT22;12543;53.364;-1.504;2023-07-31T00:44:03;16.40;99.90
24410;DHT22;12543;53.364;-1.504;2023-07-31T00:46:31;16.40;99.90
24410;DHT22;12543;53.364;-1.504;2023-07-31T00:48:59;16.40;99.90
24410;DHT22;12543;53.364;-1.504;2023-07-31T00:51:26;16.40;99.90
24410;DHT22;12543;53.364;-1.504;2023-07-31T00:53:53;16.40;99.90
24410;DHT22;12543;53.364;-1.504;2023-07-31T00:56:24;16.40;99.90
24410;DHT22;12543;53.364;-1.504;2023-07-31T00:58:52;16.40;99.90
24410;DHT22;12543;53.364;-1.504;2023-07-31T01:01:19;16.50;99.90
24410;DHT22;12543;53.364;-1.504;2023-07-31T01:03:46;16.50;99.90
24410;DHT22;12543;53.364;-1.504;2023-07-31T01:09:04;16.50;99.90
24410;DHT22;12543;53.364;-1.504;2023-07-31T01:11:46;16.50;99.90
24410;DHT22;12543;53.364;-1.504;2023-07-31T01:14:16;16.50;99.90
24410;DHT22;12543;53.364;-1.504;2023-07-31T01:16:44;16.50;99.90
24410;DHT22;12543;53.364;-1.504;2023-07-31T01:19:14;16.40;99.90
24410;DHT22;12543;53.364;-1.504;2023-07-31T01:27:23;16.50;99.90
24410;DHT22;12543;53.364;-1.504;2023-07-31T01:30:07;16.50;99.90
24410;DHT22;12543;53.364;-1.504;2023-07-31T01:32:43;16.50;99.90
24410;DHT22;12543;53.364;-1.504;2023-07-31T01:35:12;16.50;99.90
24410;DHT22;12543;53.364;-1.504;2023-07-31T01:37:40;16.50;99.90
24410;DHT22;12543;53.364;-1.504;2023-07-31T01:40:08;16.50;99.90
24410;DHT22;12543;53.364;-1.504;2023-07-31T01:42:35;16.50;99.90
24410;DHT22;12543;53.364;-1.504;2023-07-31T01:45:03;16.50;99.90
24410;DHT22;12543;53.364;-1.504;2023-07-31T01:47:30;16.50;99.90
24410;DHT22;12543;53.364;-1.504;2023-07-31T01:49:58;16.50;99.90
24410;DHT22;12543;53.364;-1.504;2023-07-31T01:52:25;16.50;99.90
24410;DHT22;12543;53.364;-1.504;2023-07-31T01:54:52;16.50;99.90
24410;DHT22;12543;53.364;-1.504;2023-07-31T01:57:19;16.50;99.90
24410;DHT22;12543;53.364;-1.504;2023-07-31T01:59:47;16.50;99.90
24410;DHT22;12543;53.364;-1.504;2023-07-31T02:02:14;16.50;99.90
24410;DHT22;12543;53.364;-1.504;2023-07-31T02:04:41;16.50;99.90
24410;DHT22;12543;53.364;-1.504;2023-07-31T02:07:08;16.50;99.90
24410;DHT22;12543;53.364;-1.504;2023-07-31T02:09:36;16.50;99.90
24410;DHT22;12543;53.364;-1.504;2023-07-31T02:12:03;16.50;99.90
24410;DHT22;12543;53.364;-1.504;2023-07-31T02:14:30;16.50;99.90
24410;DHT22;12543;53.364;-1.504;2023-07-31T02:16:58;16.50;99.90
24410;DHT22;12543;53.364;-1.504;2023-07-31T02:19:25;16.50;99.90
24410;DHT22;12543;53.364;-1.504;2023-07-31T02:21:52;16.50;99.90
24410;DHT22;12543;53.364;-1.504;2023-07-31T02:24:19;16.50;99.90
24410;DHT22;12543;53.364;-1.504;2023-07-31T02:26:47;16.50;99.90
24410;DHT22;12543;53.364;-1.504;2023-07-31T02:29:14;16.50;99.90
24410;DHT22;12543;53.364;-1.504;2023-07-31T02:31:41;16.60;99.90
24410;DHT22;12543;53.364;-1.504;2023-07-31T02:34:08;16.50;99.90
24410;DHT22;12543;53.364;-1.504;2023-07-31T02:36:35;16.60;99.90
24410;DHT22;12543;53.364;-1.504;2023-07-31T02:39:03;16.60;99.90
24410;DHT22;12543;53.364;-1.504;2023-07-31T02:41:38;16.60;99.90
24410;DHT22;12543;53.364;-1.504;2023-07-31T02:44:16;16.60;99.90
24410;DHT22;12543;53.364;-1.504;2023-07-31T02:46:44;16.60;99.90
24410;DHT22;12543;53.364;-1.504;2023-07-31T02:49:14;16.60;99.90
24410;DHT22;12543;53.364;-1.504;2023-07-31T02:51:42;16.60;99.90
24410;DHT22;12543;53.364;-1.504;2023-07-31T02:54:09;16.60;99.90
24410;DHT22;12543;53.364;-1.504;2023-07-31T02:56:36;16.60;99.90
24410;DHT22;12543;53.364;-1.504;2023-07-31T02:59:04;16.60;99.90
24410;DHT22;12543;53.364;-1.504;2023-07-31T03:01:32;16.60;99.90
24410;DHT22;12543;53.364;-1.504;2023-07-31T03:03:59;16.60;99.90
24410;DHT22;12543;53.364;-1.504;2023-07-31T03:06:26;16.60;99.90
24410;DHT22;12543;53.364;-1.504;2023-07-31T03:08:54;16.60;99.90
24410;DHT22;12543;53.364;-1.504;2023-07-31T03:11:22;16.60;99.90
24410;DHT22;12543;53.364;-1.504;2023-07-31T03:13:49;16.60;99.90
24410;DHT22;12543;53.364;-1.504;2023-07-31T03:16:16;16.70;99.90
24410;DHT22;12543;53.364;-1.504;2023-07-31T03:18:43;16.60;99.90
24410;DHT22;12543;53.364;-1.504;2023-07-31T03:21:12;16.70;99.90
24410;DHT22;12543;53.364;-1.504;2023-07-31T03:23:39;16.70;99.90
24410;DHT22;12543;53.364;-1.504;2023-07-31T03:26:07;16.70;99.90
24410;DHT22;12543;53.364;-1.504;2023-07-31T03:28:34;16.70;99.90
24410;DHT22;12543;53.364;-1.504;2023-07-31T03:31:02;16.70;99.90
24410;DHT22;12543;53.364;-1.504;2023-07-31T03:33:29;16.70;99.90
24410;DHT22;12543;53.364;-1.504;2023-07-31T03:35:57;16.70;99.90
24410;DHT22;12543;53.364;-1.504;2023-07-31T03:38:24;16.70;99.90
24410;DHT22;12543;53.364;-1.504;2023-07-31T03:41:05;16.80;99.90
24410;DHT22;12543;53.364;-1.504;2023-07-31T03:43:49;16.70;99.90
24410;DHT22;12543;53.364;-1.504;2023-07-31T03:46:19;16.80;99.90
24410;DHT22;12543;53.364;-1.504;2023-07-31T03:48:49;16.80;99.90
24410;DHT22;12543;53.364;-1.504;2023-07-31T03:51:18;16.80;99.90
24410;DHT22;12543;53.364;-1.504;2023-07-31T03:53:45;16.80;99.90
24410;DHT22;12543;53.364;-1.504;2023-07-31T03:56:13;16.80;99.90
24410;DHT22;12543;53.364;-1.504;2023-07-31T03:58:40;16.80;99.90
24410;DHT22;12543;53.364;-1.504;2023-07-31T04:01:07;16.80;99.90
24410;DHT22;12543;53.364;-1.504;2023-07-31T04:03:35;16.80;99.90
24410;DHT22;12543;53.364;-1.504;2023-07-31T04:06:02;16.80;99.90
24410;DHT22;12543;53.364;-1.504;2023-07-31T04:08:29;16.80;99.90
24410;DHT22;12543;53.364;-1.504;2023-07-31T04:10:56;16.80;99.90
24410;DHT22;12543;53.364;-1.504;2023-07-31T04:13:24;16.80;99.90
24410;DHT22;12543;53.364;-1.504;2023-07-31T04:15:57;16.80;99.90
24410;DHT22;12543;53.364;-1.504;2023-07-31T04:18:25;16.80;99.90
24410;DHT22;12543;53.364;-1.504;2023-07-31T04:20:53;16.80;99.90
24410;DHT22;12543;53.364;-1.504;2023-07-31T04:23:21;16.80;99.90
24410;DHT22;12543;53.364;-1.504;2023-07-31T04:25:48;16.80;99.90
24410;DHT22;12543;53.364;-1.504;2023-07-31T04:28:15;16.80;99.90
24410;DHT22;12543;53.364;-1.504;2023-07-31T04:30:43;16.80;99.90
24410;DHT22;12543;53.364;-1.504;2023-07-31T04:33:10;16.80;99.90
24410;DHT22;12543;53.364;-1.504;2023-07-31T04:35:37;16.80;99.90
24410;DHT22;12543;53.364;-1.504;2023-07-31T04:38:05;16.80;99.90
24410;DHT22;12543;53.364;-1.504;2023-07-31T04:40:32;16.80;99.90
24410;DHT22;12543;53.364;-1.504;2023-07-31T04:42:59;16.80;99.90
24410;DHT22;12543;53.364;-1.504;2023-07-31T04:45:26;16.80;99.90
24410;DHT22;12543;53.364;-1.504;2023-07-31T04:47:53;16.80;99.90
24410;DHT22;12543;53.364;-1.504;2023-07-31T04:50:21;16.80;99.90
24410;DHT22;12543;53.364;-1.504;2023-07-31T04:52:48;16.80;99.90
24410;DHT22;12543;53.364;-1.504;2023-07-31T04:55:15;16.80;99.90
24410;DHT22;12543;53.364;-1.504;2023-07-31T04:57:42;16.80;99.90
24410;DHT22;12543;53.364;-1.504;2023-07-31T05:00:10;16.90;99.90
24410;DHT22;12543;53.364;-1.504;2023-07-31T05:02:37;16.90;99.90
24410;DHT22;12543;53.364;-1.504;2023-07-31T05:05:05;16.90;99.90
24410;DHT22;12543;53.364;-1.504;2023-07-31T05:07:32;16.90;99.90
24410;DHT22;12543;53.364;-1.504;2023-07-31T05:09:59;16.90;99.90
24410;DHT22;12543;53.364;-1.504;2023-07-31T05:12:27;16.90;99.90
24410;DHT22;12543;53.364;-1.504;2023-07-31T05:14:54;16.90;99.90
24410;DHT22;12543;53.364;-1.504;2023-07-31T05:17:21;16.90;99.90
24410;DHT22;12543;53.364;-1.504;2023-07-31T05:19:49;16.90;99.90
24410;DHT22;12543;53.364;-1.504;2023-07-31T05:22:18;16.90;99.90
24410;DHT22;12543;53.364;-1.504;2023-07-31T05:24:46;16.90;99.90
24410;DHT22;12543;53.364;-1.504;2023-07-31T05:27:14;16.90;99.90
24410;DHT22;12543;53.364;-1.504;2023-07-31T05:29:46;16.90;99.90
24410;DHT22;12543;53.364;-1.504;2023-07-31T05:32:17;16.90;99.90
24410;DHT22;12543;53.364;-1.504;2023-07-31T05:34:44;16.90;99.90
24410;DHT22;12543;53.364;-1.504;2023-07-31T05:37:12;16.90;99.90
24410;DHT22;12543;53.364;-1.504;2023-07-31T05:39:40;16.90;99.90
24410;DHT22;12543;53.364;-1.504;2023-07-31T05:42:08;16.90;99.90
24410;DHT22;12543;53.364;-1.504;2023-07-31T05:44:38;16.90;99.90
24410;DHT22;12543;53.364;-1.504;2023-07-31T05:47:08;16.90;99.90
24410;DHT22;12543;53.364;-1.504;2023-07-31T05:49:37;16.90;99.90
24410;DHT22;12543;53.364;-1.504;2023-07-31T05:52:04;16.90;99.90
24410;DHT22;12543;53.364;-1.504;2023-07-31T05:54:32;16.90;99.90
24410;DHT22;12543;53.364;-1.504;2023-07-31T05:57:00;16.90;99.90
24410;DHT22;12543;53.364;-1.504;2023-07-31T05:59:30;16.90;99.90
24410;DHT22;12543;53.364;-1.504;2023-07-31T06:02:00;16.90;99.90
24410;DHT22;12543;53.364;-1.504;2023-07-31T06:04:27;16.80;99.90
24410;DHT22;12543;53.364;-1.504;2023-07-31T06:06:55;16.80;99.90
24410;DHT22;12543;53.364;-1.504;2023-07-31T06:09:25;16.80;99.90
24410;DHT22;12543;53.364;-1.504;2023-07-31T06:11:53;16.80;99.90
24410;DHT22;12543;53.364;-1.504;2023-07-31T06:14:20;16.80;99.90
24410;DHT22;12543;53.364;-1.504;2023-07-31T06:16:48;16.90;99.90
24410;DHT22;12543;53.364;-1.504;2023-07-31T06:19:15;16.90;99.90
24410;DHT22;12543;53.364;-1.504;2023-07-31T06:21:57;16.90;99.90
24410;DHT22;12543;53.364;-1.504;2023-07-31T06:24:24;16.90;99.90
24410;DHT22;12543;53.364;-1.504;2023-07-31T06:26:51;16.90;99.90
24410;DHT22;12543;53.364;-1.504;2023-07-31T06:29:19;16.90;99.90
24410;DHT22;12543;53.364;-1.504;2023-07-31T06:31:48;17.00;99.90
24410;DHT22;12543;53.364;-1.504;2023-07-31T06:34:15;17.00;99.90
24410;DHT22;12543;53.364;-1.504;2023-07-31T06:36:42;16.90;99.90
24410;DHT22;12543;53.364;-1.504;2023-07-31T06:39:10;17.00;99.90
24410;DHT22;12543;53.364;-1.504;2023-07-31T06:41:38;17.00;99.90
24410;DHT22;12543;53.364;-1.504;2023-07-31T06:44:10;17.00;99.90
24410;DHT22;12543;53.364;-1.504;2023-07-31T06:46:38;17.00;99.90
24410;DHT22;12543;53.364;-1.504;2023-07-31T06:49:06;17.10;99.90
24410;DHT22;12543;53.364;-1.504;2023-07-31T06:51:33;17.10;99.90
24410;DHT22;12543;53.364;-1.504;2023-07-31T06:54:00;17.00;99.90
24410;DHT22;12543;53.364;-1.504;2023-07-31T06:56:29;17.10;99.90
24410;DHT22;12543;53.364;-1.504;2023-07-31T06:59:01;17.10;99.90
24410;DHT22;12543;53.364;-1.504;2023-07-31T07:01:30;17.10;99.90
24410;DHT22;12543;53.364;-1.504;2023-07-31T07:04:00;17.10;99.90
24410;DHT22;12543;53.364;-1.504;2023-07-31T07:06:36;17.20;99.90
24410;DHT22;12543;53.364;-1.504;2023-07-31T07:09:10;17.20;99.90
24410;DHT22;12543;53.364;-1.504;2023-07-31T07:11:43;17.20;99.90
24410;DHT22;12543;53.364;-1.504;2023-07-31T07:14:11;17.10;99.90
24410;DHT22;12543;53.364;-1.504;2023-07-31T07:16:39;17.10;99.90
24410;DHT22;12543;53.364;-1.504;2023-07-31T07:19:10;17.10;99.90
24410;DHT22;12543;53.364;-1.504;2023-07-31T07:21:38;17.20;99.90
24410;DHT22;12543;53.364;-1.504;2023-07-31T07:24:08;17.10;99.90
24410;DHT22;12543;53.364;-1.504;2023-07-31T07:26:49;17.10;99.90
24410;DHT22;12543;53.364;-1.504;2023-07-31T07:29:19;17.20;99.90
24410;DHT22;12543;53.364;-1.504;2023-07-31T07:31:47;17.10;99.90
24410;DHT22;12543;53.364;-1.504;2023-07-31T07:34:16;17.10;99.90
24410;DHT22;12543;53.364;-1.504;2023-07-31T07:36:43;17.10;99.90
24410;DHT22;12543;53.364;-1.504;2023-07-31T07:39:11;17.10;99.90
24410;DHT22;12543;53.364;-1.504;2023-07-31T07:41:39;17.10;99.90
24410;DHT22;12543;53.364;-1.504;2023-07-31T07:44:07;17.00;99.90
24410;DHT22;12543;53.364;-1.504;2023-07-31T07:46:34;17.10;99.90
24410;DHT22;12543;53.364;-1.504;2023-07-31T07:49:02;17.00;99.90
24410;DHT22;12543;53.364;-1.504;2023-07-31T07:51:29;17.00;99.90
24410;DHT22;12543;53.364;-1.504;2023-07-31T07:53:58;17.10;99.90
24410;DHT22;12543;53.364;-1.504;2023-07-31T07:56:26;17.00;99.90
24410;DHT22;12543;53.364;-1.504;2023-07-31T07:58:54;17.00;99.90
24410;DHT22;12543;53.364;-1.504;2023-07-31T08:01:22;17.00;99.90
24410;DHT22;12543;53.364;-1.504;2023-07-31T08:03:52;17.00;99.90
24410;DHT22;12543;53.364;-1.504;2023-07-31T08:06:19;17.00;99.90
24410;DHT22;12543;53.364;-1.504;2023-07-31T08:08:48;16.90;99.90
24410;DHT22;12543;53.364;-1.504;2023-07-31T08:11:15;16.90;99.90
24410;DHT22;12543;53.364;-1.504;2023-07-31T08:13:43;16.90;99.90
24410;DHT22;12543;53.364;-1.504;2023-07-31T08:16:10;16.90;99.90
24410;DHT22;12543;53.364;-1.504;2023-07-31T08:18:37;16.90;99.90
24410;DHT22;12543;53.364;-1.504;2023-07-31T08:21:05;16.90;99.90
24410;DHT22;12543;53.364;-1.504;2023-07-31T08:23:32;16.90;99.90
24410;DHT22;12543;53.364;-1.504;2023-07-31T08:26:00;16.90;99.90
24410;DHT22;12543;53.364;-1.504;2023-07-31T08:28:27;16.90;99.90
24410;DHT22;12543;53.364;-1.504;2023-07-31T08:30:54;16.90;99.90
24410;DHT22;12543;53.364;-1.504;2023-07-31T08:33:22;16.90;99.90
24410;DHT22;12543;53.364;-1.504;2023-07-31T08:35:49;16.90;99.90
24410;DHT22;12543;53.364;-1.504;2023-07-31T08:38:16;16.90;99.90
24410;DHT22;12543;53.364;-1.504;2023-07-31T08:40:43;16.90;99.90
24410;DHT22;12543;53.364;-1.504;2023-07-31T08:43:11;16.90;99.90
24410;DHT22;12543;53.364;-1.504;2023-07-31T08:45:39;16.90;99.90
24410;DHT22;12543;53.364;-1.504;2023-07-31T08:48:08;16.90;99.90
24410;DHT22;12543;53.364;-1.504;2023-07-31T08:50:37;16.90;99.90
24410;DHT22;12543;53.364;-1.504;2023-07-31T08:53:05;16.90;99.90
24410;DHT22;12543;53.364;-1.504;2023-07-31T08:55:32;17.00;99.90
24410;DHT22;12543;53.364;-1.504;2023-07-31T08:58:02;16.90;99.90
24410;DHT22;12543;53.364;-1.504;2023-07-31T09:00:32;16.90;99.90
24410;DHT22;12543;53.364;-1.504;2023-07-31T09:03:02;16.90;99.90
24410;DHT22;12543;53.364;-1.504;2023-07-31T09:05:31;16.90;99.90
24410;DHT22;12543;53.364;-1.504;2023-07-31T09:08:00;16.90;99.90
24410;DHT22;12543;53.364;-1.504;2023-07-31T09:10:42;17.00;99.90
24410;DHT22;12543;53.364;-1.504;2023-07-31T09:13:11;17.00;99.90
24410;DHT22;12543;53.364;-1.504;2023-07-31T09:15:49;16.90;99.90
24410;DHT22;12543;53.364;-1.504;2023-07-31T09:18:22;16.90;99.90
24410;DHT22;12543;53.364;-1.504;2023-07-31T09:21:03;16.90;99.90
24410;DHT22;12543;53.364;-1.504;2023-07-31T09:23:44;17.00;99.90
24410;DHT22;12543;53.364;-1.504;2023-07-31T09:29:01;16.90;99.90
24410;DHT22;12543;53.364;-1.504;2023-07-31T09:31:41;16.90;99.90
24410;DHT22;12543;53.364;-1.504;2023-07-31T09:34:13;16.90;99.90
24410;DHT22;12543;53.364;-1.504;2023-07-31T09:36:51;17.00;99.90
24410;DHT22;12543;53.364;-1.504;2023-07-31T09:39:22;16.90;99.90
24410;DHT22;12543;53.364;-1.504;2023-07-31T09:41:56;17.00;99.90
24410;DHT22;12543;53.364;-1.504;2023-07-31T09:44:40;16.90;99.90
24410;DHT22;12543;53.364;-1.504;2023-07-31T09:47:21;16.90;99.90
24410;DHT22;12543;53.364;-1.504;2023-07-31T09:49:52;17.00;99.90
24410;DHT22;12543;53.364;-1.504;2023-07-31T09:52:19;17.00;99.90
24410;DHT22;12543;53.364;-1.504;2023-07-31T09:54:47;16.90;99.90
24410;DHT22;12543;53.364;-1.504;2023-07-31T09:57:16;16.90;99.90
24410;DHT22;12543;53.364;-1.504;2023-07-31T09:59:46;16.90;99.90
24410;DHT22;12543;53.364;-1.504;2023-07-31T10:02:18;17.00;99.90
24410;DHT22;12543;53.364;-1.504;2023-07-31T10:04:50;16.90;99.90
24410;DHT22;12543;53.364;-1.504;2023-07-31T10:07:18;17.00;99.90
24410;DHT22;12543;53.364;-1.504;2023-07-31T10:09:48;17.00;99.90
24410;DHT22;12543;53.364;-1.504;2023-07-31T10:12:17;16.90;99.90
24410;DHT22;12543;53.364;-1.504;2023-07-31T10:14:46;16.90;99.90
24410;DHT22;12543;53.364;-1.504;2023-07-31T10:17:14;17.00;99.90
24410;DHT22;12543;53.364;-1.504;2023-07-31T10:19:42;17.00;99.90
24410;DHT22;12543;53.364;-1.504;2023-07-31T10:22:11;16.90;99.90
24410;DHT22;12543;53.364;-1.504;2023-07-31T10:24:40;16.90;99.90
24410;DHT22;12543;53.364;-1.504;2023-07-31T10:27:13;16.90;99.90
24410;DHT22;12543;53.364;-1.504;2023-07-31T10:29:43;16.90;99.90
24410;DHT22;12543;53.364;-1.504;2023-07-31T10:32:11;16.90;99.90
24410;DHT22;12543;53.364;-1.504;2023-07-31T10:34:40;16.90;99.90
24410;DHT22;12543;53.364;-1.504;2023-07-31T10:40:09;16.90;99.90
24410;DHT22;12543;53.364;-1.504;2023-07-31T10:42:48;16.90;99.90
24410;DHT22;12543;53.364;-1.504;2023-07-31T10:45:36;16.90;99.90
24410;DHT22;12543;53.364;-1.504;2023-07-31T10:48:05;16.90;99.90
24410;DHT22;12543;53.364;-1.504;2023-07-31T10:50:46;16.90;99.90
24410;DHT22;12543;53.364;-1.504;2023-07-31T10:53:28;16.90;99.90
24410;DHT22;12543;53.364;-1.504;2023-07-31T10:56:00;17.00;99.90
24410;DHT22;12543;53.364;-1.504;2023-07-31T10:58:28;17.00;99.90
24410;DHT22;12543;53.364;-1.504;2023-07-31T11:00:57;16.90;99.90
24410;DHT22;12543;53.364;-1.504;2023-07-31T11:03:29;16.90;99.90
24410;DHT22;12543;53.364;-1.504;2023-07-31T11:06:07;16.90;99.90
24410;DHT22;12543;53.364;-1.504;2023-07-31T11:08:41;16.90;99.90
24410;DHT22;12543;53.364;-1.504;2023-07-31T11:11:10;16.90;99.90
24410;DHT22;12543;53.364;-1.504;2023-07-31T11:16:12;16.90;99.90
24410;DHT22;12543;53.364;-1.504;2023-07-31T11:18:43;16.90;99.90
24410;DHT22;12543;53.364;-1.504;2023-07-31T11:23:50;16.90;99.90
24410;DHT22;12543;53.364;-1.504;2023-07-31T11:26:18;16.90;99.90
24410;DHT22;12543;53.364;-1.504;2023-07-31T11:28:49;16.90;99.90
24410;DHT22;12543;53.364;-1.504;2023-07-31T11:31:17;16.90;99.90
24410;DHT22;12543;53.364;-1.504;2023-07-31T11:33:45;16.90;99.90
24410;DHT22;12543;53.364;-1.504;2023-07-31T11:36:17;16.90;99.90
24410;DHT22;12543;53.364;-1.504;2023-07-31T11:38:45;16.90;99.90
24410;DHT22;12543;53.364;-1.504;2023-07-31T11:41:15;16.90;99.90
24410;DHT22;12543;53.364;-1.504;2023-07-31T11:43:43;16.90;99.90
24410;DHT22;12543;53.364;-1.504;2023-07-31T11:46:10;16.90;99.90
24410;DHT22;12543;53.364;-1.504;2023-07-31T11:48:40;16.90;99.90
24410;DHT22;12543;53.364;-1.504;2023-07-31T11:51:10;16.90;99.90
24410;DHT22;12543;53.364;-1.504;2023-07-31T11:53:52;16.90;99.90
24410;DHT22;12543;53.364;-1.504;2023-07-31T11:56:20;16.90;99.90
24410;DHT22;12543;53.364;-1.504;2023-07-31T11:58:55;16.90;99.90
24410;DHT22;12543;53.364;-1.504;2023-07-31T12:01:23;16.90;99.90
24410;DHT22;12543;53.364;-1.504;2023-07-31T12:03:51;16.90;99.90
24410;DHT22;12543;53.364;-1.504;2023-07-31T12:06:18;17.00;99.90
24410;DHT22;12543;53.364;-1.504;2023-07-31T12:08:48;17.00;99.90
24410;DHT22;12543;53.364;-1.504;2023-07-31T12:11:27;16.90;99.90
24410;DHT22;12543;53.364;-1.504;2023-07-31T12:13:54;17.00;99.90
24410;DHT22;12543;53.364;-1.504;2023-07-31T12:16:26;16.90;99.90
24410;DHT22;12543;53.364;-1.504;2023-07-31T12:18:54;16.90;99.90
24410;DHT22;12543;53.364;-1.504;2023-07-31T12:21:21;16.90;99.90
24410;DHT22;12543;53.364;-1.504;2023-07-31T12:23:51;16.90;99.90
24410;DHT22;12543;53.364;-1.504;2023-07-31T12:26:20;16.90;99.90
24410;DHT22;12543;53.364;-1.504;2023-07-31T12:28:50;16.90;99.90
24410;DHT22;12543;53.364;-1.504;2023-07-31T12:31:28;16.80;99.90
24410;DHT22;12543;53.364;-1.504;2023-07-31T12:33:56;16.80;99.90
24410;DHT22;12543;53.364;-1.504;2023-07-31T12:36:24;16.80;99.90
24410;DHT22;12543;53.364;-1.504;2023-07-31T12:38:52;16.80;99.90
24410;DHT22;12543;53.364;-1.504;2023-07-31T12:41:19;16.80;99.90
24410;DHT22;12543;53.364;-1.504;2023-07-31T12:43:49;16.80;99.90
24410;DHT22;12543;53.364;-1.504;2023-07-31T12:46:18;16.70;99.90
24410;DHT22;12543;53.364;-1.504;2023-07-31T12:48:45;16.80;99.90
24410;DHT22;12543;53.364;-1.504;2023-07-31T12:51:13;16.70;99.90
24410;DHT22;12543;53.364;-1.504;2023-07-31T12:53:40;16.70;99.90
24410;DHT22;12543;53.364;-1.504;2023-07-31T12:56:08;16.70;99.90
24410;DHT22;12543;53.364;-1.504;2023-07-31T12:58:35;16.70;99.90
24410;DHT22;12543;53.364;-1.504;2023-07-31T13:01:15;16.60;99.90
24410;DHT22;12543;53.364;-1.504;2023-07-31T13:03:42;16.60;99.90
24410;DHT22;12543;53.364;-1.504;2023-07-31T13:06:09;16.60;99.90
24410;DHT22;12543;53.364;-1.504;2023-07-31T13:08:38;16.50;99.90
24410;DHT22;12543;53.364;-1.504;2023-07-31T13:11:05;16.50;99.90
24410;DHT22;12543;53.364;-1.504;2023-07-31T13:13:33;16.40;99.90
24410;DHT22;12543;53.364;-1.504;2023-07-31T13:16:00;16.40;99.90
24410;DHT22;12543;53.364;-1.504;2023-07-31T13:18:27;16.40;99.90
24410;DHT22;12543;53.364;-1.504;2023-07-31T13:20:54;16.40;99.90
24410;DHT22;12543;53.364;-1.504;2023-07-31T13:23:21;16.30;99.90
24410;DHT22;12543;53.364;-1.504;2023-07-31T13:25:48;16.30;99.90
24410;DHT22;12543;53.364;-1.504;2023-07-31T13:28:15;16.30;99.90
24410;DHT22;12543;53.364;-1.504;2023-07-31T13:30:43;16.30;99.90
24410;DHT22;12543;53.364;-1.504;2023-07-31T13:33:10;16.30;99.90
24410;DHT22;12543;53.364;-1.504;2023-07-31T13:35:57;16.20;99.90
24410;DHT22;12543;53.364;-1.504;2023-07-31T13:38:25;16.20;99.90
24410;DHT22;12543;53.364;-1.504;2023-07-31T13:40:53;16.20;99.90
24410;DHT22;12543;53.364;-1.504;2023-07-31T13:43:20;16.20;99.90
24410;DHT22;12543;53.364;-1.504;2023-07-31T13:45:48;16.10;99.90
24410;DHT22;12543;53.364;-1.504;2023-07-31T13:48:15;16.20;99.90
24410;DHT22;12543;53.364;-1.504;2023-07-31T13:50:43;16.20;99.90
24410;DHT22;12543;53.364;-1.504;2023-07-31T13:53:10;16.20;99.90
24410;DHT22;12543;53.364;-1.504;2023-07-31T13:55:37;16.20;99.90
24410;DHT22;12543;53.364;-1.504;2023-07-31T13:58:04;16.20;99.90
24410;DHT22;12543;53.364;-1.504;2023-07-31T14:00:31;16.20;99.90
24410;DHT22;12543;53.364;-1.504;2023-07-31T14:02:59;16.20;99.90
24410;DHT22;12543;53.364;-1.504;2023-07-31T14:05:26;16.20;99.90
24410;DHT22;12543;53.364;-1.504;2023-07-31T14:07:53;16.20;99.90
24410;DHT22;12543;53.364;-1.504;2023-07-31T14:10:21;16.20;99.90
24410;DHT22;12543;53.364;-1.504;2023-07-31T14:12:48;16.20;99.90
24410;DHT22;12543;53.364;-1.504;2023-07-31T14:15:15;16.20;99.90
24410;DHT22;12543;53.364;-1.504;2023-07-31T14:17:42;16.20;99.90
24410;DHT22;12543;53.364;-1.504;2023-07-31T14:20:11;16.20;99.90
24410;DHT22;12543;53.364;-1.504;2023-07-31T14:22:38;16.20;99.90
24410;DHT22;12543;53.364;-1.504;2023-07-31T14:25:06;16.20;99.90
24410;DHT22;12543;53.364;-1.504;2023-07-31T14:27:34;16.30;99.90
24410;DHT22;12543;53.364;-1.504;2023-07-31T14:30:01;16.30;99.90
24410;DHT22;12543;53.364;-1.504;2023-07-31T14:32:28;16.30;99.90
24410;DHT22;12543;53.364;-1.504;2023-07-31T14:34:55;16.30;99.90
24410;DHT22;12543;53.364;-1.504;2023-07-31T14:37:26;16.30;99.90
24410;DHT22;12543;53.364;-1.504;2023-07-31T14:39:54;16.30;99.90
24410;DHT22;12543;53.364;-1.504;2023-07-31T14:42:23;16.40;99.90
24410;DHT22;12543;53.364;-1.504;2023-07-31T14:44:50;16.40;99.90
24410;DHT22;12543;53.364;-1.504;2023-07-31T14:47:17;16.40;99.90
24410;DHT22;12543;53.364;-1.504;2023-07-31T14:49:44;16.40;99.90
24410;DHT22;12543;53.364;-1.504;2023-07-31T14:52:11;16.30;99.90
24410;DHT22;12543;53.364;-1.504;2023-07-31T14:54:39;16.40;99.90
24410;DHT22;12543;53.364;-1.504;2023-07-31T14:57:06;16.40;99.90
24410;DHT22;12543;53.364;-1.504;2023-07-31T14:59:33;16.40;99.90
24410;DHT22;12543;53.364;-1.504;2023-07-31T15:02:00;16.40;99.90
24410;DHT22;12543;53.364;-1.504;2023-07-31T15:04:28;16.40;99.90
24410;DHT22;12543;53.364;-1.504;2023-07-31T15:06:55;16.40;99.90
24410;DHT22;12543;53.364;-1.504;2023-07-31T15:09:22;16.40;99.90
24410;DHT22;12543;53.364;-1.504;2023-07-31T15:11:49;16.40;99.90
24410;DHT22;12543;53.364;-1.504;2023-07-31T15:14:16;16.40;99.90
24410;DHT22;12543;53.364;-1.504;2023-07-31T15:16:44;16.40;99.90
24410;DHT22;12543;53.364;-1.504;2023-07-31T15:19:11;16.40;99.90
24410;DHT22;12543;53.364;-1.504;2023-07-31T15:21:39;16.40;99.90
24410;DHT22;12543;53.364;-1.504;2023-07-31T15:24:06;16.40;99.90
24410;DHT22;12543;53.364;-1.504;2023-07-31T15:26:33;16.40;99.90
24410;DHT22;12543;53.364;-1.504;2023-07-31T15:29:02;16.40;99.90
24410;DHT22;12543;53.364;-1.504;2023-07-31T15:31:35;16.40;99.90
24410;DHT22;12543;53.364;-1.504;2023-07-31T15:34:02;16.40;99.90
24410;DHT22;12543;53.364;-1.504;2023-07-31T15:36:29;16.40;99.90
24410;DHT22;12543;53.364;-1.504;2023-07-31T15:38:56;16.40;99.90
24410;DHT22;12543;53.364;-1.504;2023-07-31T15:41:23;16.50;99.90
24410;DHT22;12543;53.364;-1.504;2023-07-31T15:43:52;16.50;99.90
24410;DHT22;12543;53.364;-1.504;2023-07-31T15:46:19;16.50;99.90